Onweer radar Meer informatie blitzortung!


Regen radar Meer informatie rain snow radar


Bezoek onze andere websites:


Het weer levert geen direct gevaar op.    Er zijn geen waarschuwingen afgegeven.

METAR rapporten vliegvelden

   
EHGR - Gilze-Rijen
Gewijzigd: 20-10-2018 16:25
Bewolking  
Bewolking  
   Wind: NNO 5.6 km/h
Wind: NNO 5.6 km/h
Temperatuur: 15°C
Dauwpunt: 8°C
Vochtigheid: 63%
Barometer: 1031 hPa
Bewolking: Bewolking
Zicht: meer dan 10 km
Bewolking: Bewolking 19000 ft
EHGR 201425Z AUTO 02003KT 220V330 9999 OVC190 15/08 Q1031 BLU
EHEH - Eindhoven
Gewijzigd: 20-10-2018 16:25
Bewolking  
Bewolking  
   Wind: Noorden 7.4 km/h
Wind: Noorden 7.4 km/h
Temperatuur: 15°C
Dauwpunt: 7°C
Vochtigheid: 59%
Barometer: 1031 hPa
Bewolking: Bewolking
Zicht: meer dan 10 km
Bewolking: Bewolking 38000 ft
EHEH 201425Z AUTO 36004KT 320V080 9999 OVC380 15/07 Q1031 BLU VRB04KT CAVOK
EHWO - Woensdrecht
Gewijzigd: 20-10-2018 16:25
Bewolking  
Bewolking  
   Wind: NW 5.6 km/h
Wind: NW 5.6 km/h
Temperatuur: 15°C
Dauwpunt: 8°C
Vochtigheid: 63%
Barometer: 1031 hPa
Bewolking: Bewolking
Zicht: meer dan 10 km
Bewolking: Bewolking 19000 ft
EHWO 201425Z AUTO 31003KT 180V350 9999 OVC190 15/08 Q1031 BLU
EBOS - Rotterdam
Gewijzigd: 20-10-2018 16:20
Helder  
Helder  
   Wind: NW 11.1 km/h
Wind: NW 11.1 km/h
Temperatuur: 14°C
Dauwpunt: 9°C
Vochtigheid: 72%
Barometer: 1031 hPa
Zicht: meer dan 10 km
Bewolking: Helder
EBOS 201420Z 32006KT CAVOK 14/09 Q1031 NOSIG
EBAW - Antwerp
Gewijzigd: 20-10-2018 16:20
Helder  
Helder  
   Wind: NO 5.6 km/h
Wind: NO 5.6 km/h
Temperatuur: 15°C
Dauwpunt: 7°C
Vochtigheid: 59%
Barometer: 1031 hPa
Zicht: meer dan 10 km
Bewolking: Helder
EBAW 201420Z 05003KT 350V160 CAVOK 15/07 Q1031 NOSIG
EBAW - Antwerp
Gewijzigd: 20-10-2018 16:20
Helder  
Helder  
   Wind: NO 5.6 km/h
Wind: NO 5.6 km/h
Temperatuur: 15°C
Dauwpunt: 7°C
Vochtigheid: 59%
Barometer: 1031 hPa
Zicht: meer dan 10 km
Bewolking: Helder
EBAW 201420Z 05003KT 350V160 CAVOK 15/07 Q1031 NOSIG
EBLG - Li├Ęge
Gewijzigd: 20-10-2018 16:20
Helder  
Helder  
   Wind: NNO 11.1 km/h
Wind: NNO 11.1 km/h
Temperatuur: 13°C
Dauwpunt: 6°C
Vochtigheid: 63%
Barometer: 1030 hPa
Zicht: meer dan 10 km
Bewolking: Helder
EBLG 201420Z 02006KT CAVOK 13/06 Q1030 NOSIG
EBCV - Mons/Bergen
Gewijzigd: 20-10-2018 16:25
Licht bewolkt  
Licht bewolkt  
   Wind: Noorden 9.3 km/h
Wind: Noorden 9.3 km/h
Temperatuur: 15°C
Dauwpunt: 7°C
Vochtigheid: 59%
Barometer: 1031 hPa
Bewolking: Licht bewolkt
Zicht: meer dan 10 km
Bewolking: Licht bewolkt 23000 ft
EBCV 201425Z AUTO 01005KT 9999 FEW230/// 15/07 Q1031 BLU
EHBK - Maastricht
Gewijzigd: 20-10-2018 16:25
Gedeeltelijk bewolkt  
Gedeeltelijk bewolkt  
   Wind: NO 9.3 km/h
Wind: NO 9.3 km/h
Temperatuur: 14°C
Dauwpunt: 7°C
Vochtigheid: 63%
Barometer: 1030 hPa
Bewolking: Gedeeltelijk bewolkt
Zicht: meer dan 10 km
Bewolking: Gedeeltelijk bewolkt
EHBK 201425Z AUTO 04005KT 350V110 9999 NSC 14/07 Q1030 NOSIG
ELLX - Luxemburg
Gewijzigd: 20-10-2018 16:20
Helder  
Helder  
   Wind: ONO 9.3 km/h
Wind: ONO 9.3 km/h
Temperatuur: 15°C
Dauwpunt: 7°C
Vochtigheid: 59%
Barometer: 1029 hPa
Zicht: meer dan 10 km
Bewolking: Helder
ELLX 201420Z 07005KT 040V110 CAVOK 15/07 Q1029 NOSIG
EBOS - Oostende
Gewijzigd: 20-10-2018 16:20
Helder  
Helder  
   Wind: NW 11.1 km/h
Wind: NW 11.1 km/h
Temperatuur: 14°C
Dauwpunt: 9°C
Vochtigheid: 72%
Barometer: 1031 hPa
Zicht: meer dan 10 km
Bewolking: Helder
EBOS 201420Z 32006KT CAVOK 14/09 Q1031 NOSIG
 

Script ontwikkeld door  Saratoga-weather.org Aangepast voor de template door  Weerstation Leuven

U vindt ons ook hier:

Weather Underground

Apparatuur in gebruik:

Weerstation
Davis VP2

Weerprogramma
Meteohub

Weercomputer
Raspberry Pi

Webleverancier
My provider

Davis VP2

Meteohub

Raspberry Pi

My provider